createdAt,value
2023-05-25T08:28:48.727Z,3.42
2023-05-25T08:33:52.240Z,3.82
2023-05-25T08:38:55.645Z,3.64
2023-05-25T08:44:06.092Z,3.24
2023-05-25T08:49:10.925Z,3.51
2023-05-25T08:54:14.908Z,4.01
2023-05-25T08:59:32.012Z,4.14
2023-05-25T09:04:35.801Z,4.35
2023-05-25T09:09:40.193Z,4.67
2023-05-25T09:14:47.950Z,5.02
2023-05-25T09:19:51.932Z,5.15
2023-05-25T09:24:55.609Z,4.07
2023-05-25T09:30:01.856Z,3.85
2023-05-25T09:35:10.583Z,4.42
2023-05-25T09:40:15.441Z,5.31
2023-05-25T09:45:24.406Z,4.97
2023-05-25T09:50:30.762Z,4.03
2023-05-25T09:55:51.574Z,4.37
2023-05-25T10:00:58.481Z,4.80
2023-05-25T10:06:02.529Z,4.50
2023-05-25T10:11:07.001Z,4.57
2023-05-25T10:16:17.628Z,4.43
2023-05-25T10:21:23.856Z,3.44
2023-05-25T10:26:28.911Z,4.50
2023-05-25T10:31:37.589Z,5.21
2023-05-25T10:36:42.001Z,3.43
2023-05-25T10:41:45.481Z,4.37
2023-05-25T10:46:50.680Z,4.37
2023-05-25T10:51:59.429Z,4.75
2023-05-25T10:57:09.759Z,4.88
2023-05-25T11:02:16.421Z,5.04
2023-05-25T11:07:22.831Z,3.98
2023-05-25T11:12:27.617Z,4.93
2023-05-25T11:17:36.436Z,5.02
2023-05-25T11:22:40.391Z,4.68
2023-05-25T11:27:47.376Z,4.27
2023-05-25T11:32:52.297Z,4.58
2023-05-25T11:37:55.685Z,5.15
2023-05-25T11:43:00.832Z,4.03
2023-05-25T11:48:14.114Z,5.39
2023-05-25T11:53:19.675Z,4.77
2023-05-25T11:58:26.684Z,5.06
2023-05-25T12:03:32.861Z,4.56
2023-05-25T12:08:38.687Z,3.63
2023-05-25T12:13:44.383Z,3.21
2023-05-25T12:18:50.812Z,2.75
2023-05-25T12:23:54.811Z,3.07
2023-05-25T12:29:03.046Z,3.61
2023-05-25T12:34:08.949Z,3.18
2023-05-25T12:39:13.532Z,2.69
2023-05-25T12:44:17.712Z,2.01
2023-05-25T12:49:29.716Z,2.78
2023-05-25T12:54:41.043Z,3.12
2023-05-25T12:59:45.127Z,3.54
2023-05-25T13:04:49.947Z,3.85
2023-05-25T13:09:54.034Z,4.39
2023-05-25T13:14:57.599Z,4.40
2023-05-25T13:20:02.440Z,3.69
2023-05-25T13:25:09.295Z,4.19
2023-05-25T13:30:13.263Z,4.04
2023-05-25T13:35:23.884Z,3.79
2023-05-25T13:40:27.716Z,4.27
2023-05-25T13:45:31.486Z,4.14
2023-05-25T13:50:37.062Z,4.52
2023-05-25T13:55:40.912Z,5.22
2023-05-25T14:00:44.619Z,5.36
2023-05-25T14:05:49.972Z,4.36
2023-05-25T14:10:53.531Z,5.52
2023-05-25T14:15:57.173Z,5.21
2023-05-25T14:21:02.231Z,5.38
2023-05-25T14:26:05.821Z,5.55
2023-05-25T14:31:09.318Z,5.50
2023-05-25T14:36:14.283Z,4.83
2023-05-25T14:41:17.781Z,4.37
2023-05-25T14:46:23.478Z,3.57
2023-05-25T14:51:28.810Z,3.95
2023-05-25T14:56:32.648Z,3.53
2023-05-25T15:01:36.179Z,3.61
2023-05-25T15:06:42.319Z,3.23
2023-05-25T15:11:49.426Z,3.45
2023-05-25T15:16:52.820Z,3.13
2023-05-25T15:21:57.703Z,3.01
2023-05-25T15:27:04.072Z,2.96
2023-05-25T15:32:19.128Z,3.08
2023-05-25T15:37:24.481Z,3.01
2023-05-25T15:42:33.989Z,3.54
2023-05-25T15:47:44.287Z,3.76
2023-05-25T15:52:51.778Z,3.73
2023-05-25T15:57:57.175Z,4.18
2023-05-25T16:03:06.377Z,3.62
2023-05-25T16:08:31.624Z,3.54
2023-05-25T16:13:35.099Z,3.67
2023-05-25T16:21:04.024Z,3.60
2023-05-25T16:24:10.206Z,3.53
2023-05-25T16:29:13.882Z,3.20
2023-05-25T16:34:17.565Z,2.72
2023-05-25T16:39:23.686Z,2.74
2023-05-25T16:44:27.205Z,2.52
2023-05-25T16:49:30.877Z,2.43
2023-05-25T16:54:35.819Z,2.08
2023-05-25T16:59:39.786Z,2.01
2023-05-25T17:04:43.238Z,1.93
2023-05-25T17:09:48.107Z,1.86
2023-05-25T17:14:55.492Z,1.91
2023-05-25T17:20:21.878Z,1.87
2023-05-25T17:25:24.618Z,1.75
2023-05-25T17:30:30.941Z,1.77
2023-05-25T17:35:34.443Z,2.01
2023-05-25T17:40:39.399Z,1.98
2023-05-25T17:45:43.561Z,1.69
2023-05-25T17:50:50.332Z,1.50
2023-05-25T17:55:55.205Z,1.30
2023-05-25T18:00:58.949Z,1.37
2023-05-25T18:06:02.675Z,1.30
2023-05-25T18:11:07.784Z,0.90
2023-05-25T18:16:15.751Z,0.72
2023-05-25T18:21:24.524Z,0.55
2023-05-25T18:26:31.819Z,0.46
2023-05-25T18:31:35.325Z,0.27
2023-05-25T18:36:39.056Z,0.23
2023-05-25T18:41:44.072Z,0.22
2023-05-25T18:46:50.202Z,0.06
2023-05-25T18:51:53.719Z,-0.03
2023-05-25T18:56:58.773Z,-0.19
2023-05-25T19:02:02.572Z,-0.34
2023-05-25T19:07:08.876Z,-0.46
2023-05-25T19:12:15.376Z,-0.68
2023-05-25T19:17:28.079Z,-0.88
2023-05-25T19:22:34.815Z,-0.99
2023-05-25T19:27:40.047Z,-1.13
2023-05-25T19:32:43.935Z,-1.27
2023-05-25T19:37:47.693Z,-1.41
2023-05-25T19:42:53.368Z,-1.53
2023-05-25T19:48:08.071Z,-1.60
2023-05-25T19:53:12.191Z,-1.72
2023-05-25T19:58:17.450Z,-1.84
2023-05-25T20:03:21.956Z,-1.91
2023-05-25T20:08:28.574Z,-2.03
2023-05-25T20:13:33.934Z,-2.18
2023-05-25T20:18:37.833Z,-2.32
2023-05-25T20:23:41.301Z,-2.41
2023-05-25T20:28:49.078Z,-2.60
2023-05-25T20:33:55.946Z,-2.73
2023-05-25T20:39:00.447Z,-2.83
2023-05-25T20:44:06.631Z,-2.91
2023-05-25T20:49:11.217Z,-3.02
2023-05-25T20:54:15.424Z,-3.12
2023-05-25T20:59:23.577Z,-3.22
2023-05-25T21:04:31.645Z,-3.30
2023-05-25T21:09:36.006Z,-3.38
2023-05-25T21:14:41.076Z,-3.45
2023-05-25T21:19:44.646Z,-3.48
2023-05-25T21:24:50.580Z,-3.57
